Аэропорт: Пулково. Санкт-Петербург

ICAO: ULLI

METAR:
2019-07-23 18:00:00
ULLI 231800Z 00000MPS 9999 FEW046 21/14 Q1013 R10R/090060 NOSIG
METAR:
2019-07-23 16:58:00
TAF ULLI 231658Z 2318/2418 35003MPS 9999 SCT025 FM232100 02003MPS 4000 MIFG BR SCT011 TEMPO 2400/2403 34003MPS 1000 MIFG BR FM240400 04003MPS 9999 BKN020 TEMPO 2404/2418 05003G08MPS 4000 -SHRA SCT011 BKN020CB